sensor_id;sensor_type;location;lat;lon;timestamp;temperature;humidity
28069;DHT22;15382;47.578;8.086;2023-05-19T00:05:11;11.50;99.90
28069;DHT22;15382;47.578;8.086;2023-05-19T00:15:17;11.50;99.90
28069;DHT22;15382;47.578;8.086;2023-05-19T00:25:18;11.50;99.90
28069;DHT22;15382;47.578;8.086;2023-05-19T00:35:19;11.30;99.90
28069;DHT22;15382;47.578;8.086;2023-05-19T00:45:20;11.00;99.90
28069;DHT22;15382;47.578;8.086;2023-05-19T00:55:22;11.10;99.90
28069;DHT22;15382;47.578;8.086;2023-05-19T01:05:23;11.00;99.90
28069;DHT22;15382;47.578;8.086;2023-05-19T01:15:24;10.90;99.90
28069;DHT22;15382;47.578;8.086;2023-05-19T01:35:27;10.70;99.90
28069;DHT22;15382;47.578;8.086;2023-05-19T01:45:29;10.60;99.90
28069;DHT22;15382;47.578;8.086;2023-05-19T01:55:30;10.20;99.90
28069;DHT22;15382;47.578;8.086;2023-05-19T02:05:36;9.90;99.90
28069;DHT22;15382;47.578;8.086;2023-05-19T02:15:39;9.70;99.90
28069;DHT22;15382;47.578;8.086;2023-05-19T02:25:40;9.50;99.90
28069;DHT22;15382;47.578;8.086;2023-05-19T02:35:40;9.40;99.90
28069;DHT22;15382;47.578;8.086;2023-05-19T02:45:41;9.40;99.90
28069;DHT22;15382;47.578;8.086;2023-05-19T02:55:42;9.60;99.90
28069;DHT22;15382;47.578;8.086;2023-05-19T03:05:42;9.50;99.90
28069;DHT22;15382;47.578;8.086;2023-05-19T03:15:43;9.40;99.90
28069;DHT22;15382;47.578;8.086;2023-05-19T03:25:44;9.50;99.90
28069;DHT22;15382;47.578;8.086;2023-05-19T03:35:45;9.50;99.90
28069;DHT22;15382;47.578;8.086;2023-05-19T03:45:46;9.40;99.90
28069;DHT22;15382;47.578;8.086;2023-05-19T03:56:25;9.40;99.90
28069;DHT22;15382;47.578;8.086;2023-05-19T04:06:27;9.30;99.90
28069;DHT22;15382;47.578;8.086;2023-05-19T04:16:27;9.30;99.90
28069;DHT22;15382;47.578;8.086;2023-05-19T04:26:28;9.60;99.90
28069;DHT22;15382;47.578;8.086;2023-05-19T04:36:30;9.70;99.90
28069;DHT22;15382;47.578;8.086;2023-05-19T04:46:34;9.80;99.90
28069;DHT22;15382;47.578;8.086;2023-05-19T04:56:35;10.10;99.90
28069;DHT22;15382;47.578;8.086;2023-05-19T05:06:36;10.30;99.90
28069;DHT22;15382;47.578;8.086;2023-05-19T05:16:39;10.40;99.90
28069;DHT22;15382;47.578;8.086;2023-05-19T05:26:42;10.60;99.90
28069;DHT22;15382;47.578;8.086;2023-05-19T05:36:43;10.70;99.90
28069;DHT22;15382;47.578;8.086;2023-05-19T05:46:44;10.90;99.90
28069;DHT22;15382;47.578;8.086;2023-05-19T05:56:45;11.20;99.90
28069;DHT22;15382;47.578;8.086;2023-05-19T06:06:47;11.50;99.90
28069;DHT22;15382;47.578;8.086;2023-05-19T06:16:53;11.80;99.90
28069;DHT22;15382;47.578;8.086;2023-05-19T06:26:54;12.20;99.90
28069;DHT22;15382;47.578;8.086;2023-05-19T06:36:55;12.20;99.90
28069;DHT22;15382;47.578;8.086;2023-05-19T06:46:56;12.80;99.90
28069;DHT22;15382;47.578;8.086;2023-05-19T06:56:57;13.40;99.90
28069;DHT22;15382;47.578;8.086;2023-05-19T07:06:58;13.80;99.90
28069;DHT22;15382;47.578;8.086;2023-05-19T07:17:00;14.20;99.90
28069;DHT22;15382;47.578;8.086;2023-05-19T07:27:02;14.70;99.90
28069;DHT22;15382;47.578;8.086;2023-05-19T07:37:02;15.00;99.90
28069;DHT22;15382;47.578;8.086;2023-05-19T07:47:03;15.70;99.90
28069;DHT22;15382;47.578;8.086;2023-05-19T07:57:04;15.80;99.90
28069;DHT22;15382;47.578;8.086;2023-05-19T08:07:05;16.50;99.90
28069;DHT22;15382;47.578;8.086;2023-05-19T08:17:05;15.70;99.90
28069;DHT22;15382;47.578;8.086;2023-05-19T08:27:06;15.60;99.90
28069;DHT22;15382;47.578;8.086;2023-05-19T08:37:07;15.40;99.90
28069;DHT22;15382;47.578;8.086;2023-05-19T08:47:07;16.00;99.90
28069;DHT22;15382;47.578;8.086;2023-05-19T08:57:13;17.30;99.90
28069;DHT22;15382;47.578;8.086;2023-05-19T09:07:14;16.40;99.90
28069;DHT22;15382;47.578;8.086;2023-05-19T09:17:15;17.40;99.90
28069;DHT22;15382;47.578;8.086;2023-05-19T09:27:20;17.60;99.90
28069;DHT22;15382;47.578;8.086;2023-05-19T09:37:22;17.30;99.90
28069;DHT22;15382;47.578;8.086;2023-05-19T09:47:23;17.90;99.90
28069;DHT22;15382;47.578;8.086;2023-05-19T09:57:24;17.90;99.90
28069;DHT22;15382;47.578;8.086;2023-05-19T10:07:26;18.20;99.90
28069;DHT22;15382;47.578;8.086;2023-05-19T10:17:27;19.10;99.90
28069;DHT22;15382;47.578;8.086;2023-05-19T10:27:28;20.00;99.90
28069;DHT22;15382;47.578;8.086;2023-05-19T10:47:30;20.10;99.90
28069;DHT22;15382;47.578;8.086;2023-05-19T10:57:32;21.00;99.90
28069;DHT22;15382;47.578;8.086;2023-05-19T11:07:34;21.00;99.90
28069;DHT22;15382;47.578;8.086;2023-05-19T11:17:34;20.80;99.90
28069;DHT22;15382;47.578;8.086;2023-05-19T11:27:35;20.80;99.90
28069;DHT22;15382;47.578;8.086;2023-05-19T11:37:37;20.60;99.90
28069;DHT22;15382;47.578;8.086;2023-05-19T11:47:39;20.70;99.90
28069;DHT22;15382;47.578;8.086;2023-05-19T11:57:41;21.50;99.90
28069;DHT22;15382;47.578;8.086;2023-05-19T12:07:45;21.40;99.90
28069;DHT22;15382;47.578;8.086;2023-05-19T12:27:50;20.00;99.90
28069;DHT22;15382;47.578;8.086;2023-05-19T12:37:55;20.00;99.90
28069;DHT22;15382;47.578;8.086;2023-05-19T12:47:57;19.60;99.90
28069;DHT22;15382;47.578;8.086;2023-05-19T12:57:57;19.80;99.90
28069;DHT22;15382;47.578;8.086;2023-05-19T13:08:05;19.30;99.90
28069;DHT22;15382;47.578;8.086;2023-05-19T13:18:07;18.80;99.90
28069;DHT22;15382;47.578;8.086;2023-05-19T13:28:08;18.50;99.90
28069;DHT22;15382;47.578;8.086;2023-05-19T13:38:09;18.00;99.90
28069;DHT22;15382;47.578;8.086;2023-05-19T13:48:10;17.30;99.90
28069;DHT22;15382;47.578;8.086;2023-05-19T13:58:11;16.30;99.90
28069;DHT22;15382;47.578;8.086;2023-05-19T14:08:14;16.40;99.90
28069;DHT22;15382;47.578;8.086;2023-05-19T14:18:15;16.30;99.90
28069;DHT22;15382;47.578;8.086;2023-05-19T14:28:16;16.30;99.90
28069;DHT22;15382;47.578;8.086;2023-05-19T14:38:17;15.80;99.90
28069;DHT22;15382;47.578;8.086;2023-05-19T14:48:17;16.00;99.90
28069;DHT22;15382;47.578;8.086;2023-05-19T14:58:18;16.00;99.90
28069;DHT22;15382;47.578;8.086;2023-05-19T15:08:19;16.30;99.90
28069;DHT22;15382;47.578;8.086;2023-05-19T15:18:19;16.10;99.90
28069;DHT22;15382;47.578;8.086;2023-05-19T15:28:20;15.90;99.90
28069;DHT22;15382;47.578;8.086;2023-05-19T15:38:21;16.10;99.90
28069;DHT22;15382;47.578;8.086;2023-05-19T15:48:21;16.00;99.90
28069;DHT22;15382;47.578;8.086;2023-05-19T15:58:22;16.00;99.90
28069;DHT22;15382;47.578;8.086;2023-05-19T16:08:23;15.60;99.90
28069;DHT22;15382;47.578;8.086;2023-05-19T16:18:24;15.20;99.90
28069;DHT22;15382;47.578;8.086;2023-05-19T16:28:24;15.30;99.90
28069;DHT22;15382;47.578;8.086;2023-05-19T16:38:25;15.30;99.90
28069;DHT22;15382;47.578;8.086;2023-05-19T16:48:26;15.00;99.90
28069;DHT22;15382;47.578;8.086;2023-05-19T16:58:26;14.80;99.90
28069;DHT22;15382;47.578;8.086;2023-05-19T17:08:27;14.70;99.90
28069;DHT22;15382;47.578;8.086;2023-05-19T17:18:28;14.60;99.90
28069;DHT22;15382;47.578;8.086;2023-05-19T17:28:30;14.50;99.90
28069;DHT22;15382;47.578;8.086;2023-05-19T17:38:31;14.40;99.90
28069;DHT22;15382;47.578;8.086;2023-05-19T17:48:32;14.40;99.90
28069;DHT22;15382;47.578;8.086;2023-05-19T17:58:33;14.20;99.90
28069;DHT22;15382;47.578;8.086;2023-05-19T18:08:34;14.10;99.90
28069;DHT22;15382;47.578;8.086;2023-05-19T18:18:35;14.00;99.90
28069;DHT22;15382;47.578;8.086;2023-05-19T18:28:39;13.90;99.90
28069;DHT22;15382;47.578;8.086;2023-05-19T18:38:40;13.90;99.90
28069;DHT22;15382;47.578;8.086;2023-05-19T18:48:40;13.80;99.90
28069;DHT22;15382;47.578;8.086;2023-05-19T18:58:41;13.70;99.90
28069;DHT22;15382;47.578;8.086;2023-05-19T19:08:42;13.60;99.90
28069;DHT22;15382;47.578;8.086;2023-05-19T19:18:43;13.50;99.90
28069;DHT22;15382;47.578;8.086;2023-05-19T19:28:43;13.50;99.90
28069;DHT22;15382;47.578;8.086;2023-05-19T19:38:45;13.50;99.90
28069;DHT22;15382;47.578;8.086;2023-05-19T19:48:46;13.50;99.90
28069;DHT22;15382;47.578;8.086;2023-05-19T19:58:46;13.50;99.90
28069;DHT22;15382;47.578;8.086;2023-05-19T20:08:47;13.40;99.90
28069;DHT22;15382;47.578;8.086;2023-05-19T20:18:48;13.40;99.90
28069;DHT22;15382;47.578;8.086;2023-05-19T20:28:49;13.30;99.90
28069;DHT22;15382;47.578;8.086;2023-05-19T20:38:50;13.20;99.90
28069;DHT22;15382;47.578;8.086;2023-05-19T20:48:51;13.10;99.90
28069;DHT22;15382;47.578;8.086;2023-05-19T20:58:51;13.10;99.90
28069;DHT22;15382;47.578;8.086;2023-05-19T21:08:52;13.00;99.90
28069;DHT22;15382;47.578;8.086;2023-05-19T21:18:52;12.90;99.90
28069;DHT22;15382;47.578;8.086;2023-05-19T21:28:53;13.00;99.90
28069;DHT22;15382;47.578;8.086;2023-05-19T21:38:54;12.90;99.90
28069;DHT22;15382;47.578;8.086;2023-05-19T21:48:54;12.80;99.90
28069;DHT22;15382;47.578;8.086;2023-05-19T21:58:55;12.60;99.90
28069;DHT22;15382;47.578;8.086;2023-05-19T22:08:56;12.60;99.90
28069;DHT22;15382;47.578;8.086;2023-05-19T22:18:59;12.70;99.90
28069;DHT22;15382;47.578;8.086;2023-05-19T22:29:00;12.80;99.90
28069;DHT22;15382;47.578;8.086;2023-05-19T22:39:01;12.90;99.90
28069;DHT22;15382;47.578;8.086;2023-05-19T22:49:02;12.70;99.90
28069;DHT22;15382;47.578;8.086;2023-05-19T22:59:02;12.30;99.90
28069;DHT22;15382;47.578;8.086;2023-05-19T23:09:03;12.20;99.90
28069;DHT22;15382;47.578;8.086;2023-05-19T23:19:04;12.30;99.90
28069;DHT22;15382;47.578;8.086;2023-05-19T23:29:04;12.30;99.90
28069;DHT22;15382;47.578;8.086;2023-05-19T23:39:05;12.40;99.90
28069;DHT22;15382;47.578;8.086;2023-05-19T23:49:06;12.50;99.90
28069;DHT22;15382;47.578;8.086;2023-05-19T23:59:06;12.30;99.90
